createdAt,value
2022-08-07T00:01:43.276Z,9.77
2022-08-07T00:03:52.498Z,9.68
2022-08-07T00:06:29.552Z,9.45
2022-08-07T00:09:07.855Z,8.65
2022-08-07T00:11:53.903Z,10.50
2022-08-07T00:14:25.506Z,9.27
2022-08-07T00:16:52.782Z,8.45
2022-08-07T00:19:21.709Z,8.50
2022-08-07T00:21:55.886Z,8.98
2022-08-07T00:24:24.916Z,9.30
2022-08-07T00:27:06.505Z,8.95
2022-08-07T00:29:37.017Z,9.30
2022-08-07T00:32:05.891Z,8.02
2022-08-07T00:34:35.661Z,8.65
2022-08-07T00:37:05.031Z,8.77
2022-08-07T00:39:32.571Z,8.40
2022-08-07T00:42:02.235Z,7.30
2022-08-07T00:44:33.057Z,7.53
2022-08-07T00:47:00.662Z,7.78
2022-08-07T00:50:20.391Z,7.20
2022-08-07T00:52:19.831Z,6.72
2022-08-07T00:54:53.858Z,6.25
2022-08-07T00:57:22.363Z,7.03
2022-08-07T00:59:49.870Z,6.97
2022-08-07T01:02:28.550Z,6.97
2022-08-07T01:04:58.435Z,5.72
2022-08-07T01:07:27.613Z,5.80
2022-08-07T01:10:06.253Z,5.22
2022-08-07T01:12:39.148Z,5.40
2022-08-07T01:15:07.246Z,5.90
2022-08-07T01:17:40.078Z,5.60
2022-08-07T01:20:16.582Z,5.28
2022-08-07T01:22:46.695Z,5.88
2022-08-07T01:25:53.974Z,5.53
2022-08-07T01:28:09.218Z,4.80
2022-08-07T01:30:38.471Z,5.28
2022-08-07T01:33:06.213Z,3.97
2022-08-07T01:35:52.834Z,4.95
2022-08-07T01:38:25.830Z,4.88
2022-08-07T01:40:59.224Z,4.40
2022-08-07T01:43:26.899Z,4.97
2022-08-07T01:46:02.729Z,5.20
2022-08-07T01:48:32.646Z,6.03
2022-08-07T01:51:24.461Z,6.20
2022-08-07T01:54:11.770Z,6.00
2022-08-07T01:56:39.475Z,5.30
2022-08-07T01:59:15.676Z,4.90
2022-08-07T02:01:59.747Z,5.60
2022-08-07T02:04:36.379Z,5.10
2022-08-07T02:07:05.427Z,4.85
2022-08-07T02:09:52.361Z,4.70
2022-08-07T02:12:29.075Z,4.72
2022-08-07T02:14:59.380Z,4.45
2022-08-07T02:17:31.838Z,4.50
2022-08-07T02:20:07.093Z,4.20
2022-08-07T02:25:07.207Z,3.42
2022-08-07T02:27:42.578Z,3.80
2022-08-07T02:30:18.487Z,3.67
2022-08-07T02:33:03.618Z,3.58
2022-08-07T02:36:30.864Z,3.78
2022-08-07T02:38:28.246Z,4.13
2022-08-07T02:41:00.272Z,4.32
2022-08-07T02:43:28.756Z,4.43
2022-08-07T02:46:01.847Z,4.78
2022-08-07T02:48:30.171Z,4.97
2022-08-07T02:51:00.345Z,5.45
2022-08-07T02:53:37.148Z,5.50
2022-08-07T02:56:12.854Z,4.90
2022-08-07T02:58:46.986Z,5.25
2022-08-07T03:01:18.924Z,4.90
2022-08-07T03:04:03.490Z,5.75
2022-08-07T03:06:35.049Z,5.88
2022-08-07T03:09:03.331Z,5.72
2022-08-07T03:11:32.738Z,5.30
2022-08-07T03:16:33.674Z,5.57
2022-08-07T03:19:01.397Z,5.82
2022-08-07T03:21:29.008Z,5.50
2022-08-07T03:24:20.023Z,5.25
2022-08-07T03:26:58.587Z,5.25
2022-08-07T03:29:28.883Z,5.00
2022-08-07T03:31:56.770Z,5.25
2022-08-07T03:34:27.398Z,4.57
2022-08-07T03:36:54.955Z,4.97
2022-08-07T03:39:59.373Z,5.28
2022-08-07T03:42:12.678Z,5.47
2022-08-07T03:44:39.987Z,5.53
2022-08-07T03:47:10.914Z,4.90
2022-08-07T03:49:41.850Z,5.40
2022-08-07T03:52:26.851Z,5.30
2022-08-07T03:55:07.436Z,6.20
2022-08-07T03:58:34.913Z,5.35
2022-08-07T04:00:30.677Z,6.00
2022-08-07T04:03:03.624Z,5.22
2022-08-07T04:05:40.305Z,5.28
2022-08-07T04:08:11.153Z,5.82
2022-08-07T04:10:38.988Z,5.55
2022-08-07T04:13:07.683Z,6.60
2022-08-07T04:15:43.878Z,5.63
2022-08-07T04:18:56.633Z,5.97
2022-08-07T04:21:01.636Z,5.45
2022-08-07T04:23:43.471Z,5.50
2022-08-07T04:26:21.809Z,6.22
2022-08-07T04:28:49.307Z,5.10
2022-08-07T04:31:19.637Z,6.32
2022-08-07T04:33:55.075Z,5.75
2022-08-07T04:36:26.417Z,5.90
2022-08-07T04:38:53.806Z,5.30
2022-08-07T04:41:21.103Z,5.63
2022-08-07T04:44:09.922Z,6.00
2022-08-07T04:47:03.770Z,5.15
2022-08-07T04:49:47.502Z,5.10
2022-08-07T04:52:51.311Z,4.78
2022-08-07T04:58:12.542Z,5.00
2022-08-07T04:59:18.525Z,4.85
2022-08-07T05:01:30.073Z,4.40
2022-08-07T05:04:08.320Z,5.25
2022-08-07T05:06:43.093Z,4.57
2022-08-07T05:09:13.507Z,4.88
2022-08-07T05:11:57.007Z,4.97
2022-08-07T05:14:53.043Z,3.85
2022-08-07T05:17:52.180Z,4.32
2022-08-07T05:20:09.987Z,4.45
2022-08-07T05:22:38.939Z,4.10
2022-08-07T05:25:08.423Z,4.30
2022-08-07T05:28:03.013Z,4.20
2022-08-07T05:30:32.439Z,4.13
2022-08-07T05:33:00.384Z,3.85
2022-08-07T05:35:33.395Z,3.47
2022-08-07T05:38:09.989Z,3.50
2022-08-07T05:40:50.568Z,3.17
2022-08-07T05:43:19.374Z,3.00
2022-08-07T05:46:06.910Z,2.90
2022-08-07T05:48:34.414Z,2.97
2022-08-07T05:51:03.479Z,2.95
2022-08-07T05:54:13.718Z,2.80
2022-08-07T05:56:19.788Z,2.80
2022-08-07T05:58:49.326Z,2.53
2022-08-07T06:01:20.737Z,2.20
2022-08-07T06:03:53.874Z,2.88
2022-08-07T06:06:29.330Z,2.33
2022-08-07T06:08:57.671Z,2.60
2022-08-07T06:11:26.359Z,2.58
2022-08-07T06:14:13.379Z,2.40
2022-08-07T06:16:41.722Z,2.10
2022-08-07T06:19:17.891Z,2.13
2022-08-07T06:22:15.026Z,2.45
2022-08-07T06:24:45.794Z,2.58
2022-08-07T06:28:00.031Z,2.40
2022-08-07T06:30:32.119Z,1.95
2022-08-07T06:32:58.765Z,2.10
2022-08-07T06:35:30.514Z,2.00
2022-08-07T06:38:08.185Z,2.30
2022-08-07T06:40:48.014Z,1.92
2022-08-07T06:43:21.290Z,2.42
2022-08-07T06:45:49.586Z,2.30
2022-08-07T06:48:24.850Z,2.13
2022-08-07T06:50:53.599Z,2.05
2022-08-07T06:55:29.205Z,1.90
2022-08-07T06:56:15.075Z,2.40
2022-08-07T07:00:11.584Z,2.47
2022-08-07T07:01:33.273Z,2.53
2022-08-07T07:04:32.669Z,2.22
2022-08-07T07:07:01.222Z,2.40
2022-08-07T07:09:31.117Z,2.30
2022-08-07T07:12:10.611Z,2.00
2022-08-07T07:14:46.901Z,2.35
2022-08-07T07:17:38.970Z,2.10
2022-08-07T07:20:09.330Z,2.08
2022-08-07T07:24:06.105Z,2.10
2022-08-07T07:26:33.920Z,1.90
2022-08-07T07:28:42.349Z,2.40
2022-08-07T07:31:13.472Z,1.90
2022-08-07T07:33:54.900Z,1.70
2022-08-07T07:36:25.025Z,1.70
2022-08-07T07:39:01.062Z,1.70
2022-08-07T07:41:31.119Z,1.45
2022-08-07T07:44:26.128Z,1.95
2022-08-07T07:46:59.439Z,1.70
2022-08-07T07:50:35.717Z,1.50
2022-08-07T07:52:21.598Z,1.90
2022-08-07T07:54:52.198Z,1.58
2022-08-07T07:57:21.494Z,1.55
2022-08-07T08:00:09.508Z,1.30
2022-08-07T08:02:38.679Z,1.63
2022-08-07T08:05:42.884Z,1.60
2022-08-07T08:08:32.238Z,1.40
2022-08-07T08:10:58.693Z,1.60
2022-08-07T08:13:36.533Z,1.35
2022-08-07T08:16:13.333Z,1.80
2022-08-07T08:18:40.799Z,1.60
2022-08-07T08:21:56.032Z,1.80
2022-08-07T08:24:45.619Z,1.65
2022-08-07T08:27:16.744Z,1.80
2022-08-07T08:29:55.567Z,1.80
2022-08-07T08:32:38.212Z,1.85
2022-08-07T08:35:07.870Z,1.90
2022-08-07T08:38:00.813Z,1.80
2022-08-07T08:40:28.569Z,1.60
2022-08-07T08:42:56.139Z,1.73
2022-08-07T08:46:00.796Z,1.67
2022-08-07T08:48:32.366Z,1.65
2022-08-07T08:51:23.241Z,2.05
2022-08-07T08:54:02.949Z,1.40
2022-08-07T08:56:47.703Z,1.60
2022-08-07T08:59:16.441Z,1.80
2022-08-07T09:01:46.521Z,1.20
2022-08-07T09:04:26.079Z,1.70
2022-08-07T09:07:04.054Z,1.70
2022-08-07T09:09:41.014Z,1.60
2022-08-07T09:12:30.555Z,1.75
2022-08-07T09:16:24.603Z,1.88
2022-08-07T09:18:23.879Z,1.80
2022-08-07T09:20:58.605Z,1.70
2022-08-07T09:24:33.073Z,1.70
2022-08-07T09:26:21.376Z,1.77
2022-08-07T09:30:06.560Z,1.90
2022-08-07T09:31:52.136Z,2.17
2022-08-07T09:34:26.332Z,2.10
2022-08-07T09:37:21.212Z,1.95
2022-08-07T09:40:22.960Z,1.80
2022-08-07T09:42:57.263Z,1.80
2022-08-07T09:48:45.318Z,1.58
2022-08-07T09:54:11.596Z,2.00
2022-08-07T09:57:02.401Z,1.77
2022-08-07T10:00:00.739Z,1.60
2022-08-07T10:02:34.981Z,1.85
2022-08-07T10:05:12.555Z,1.90
2022-08-07T10:07:55.675Z,1.63
2022-08-07T10:11:16.568Z,1.50
2022-08-07T10:13:54.892Z,2.08
2022-08-07T10:16:33.974Z,1.65
2022-08-07T10:19:01.230Z,1.95
2022-08-07T10:22:12.332Z,1.98
2022-08-07T10:27:10.451Z,2.00
2022-08-07T10:29:45.777Z,2.00
2022-08-07T10:32:52.302Z,1.95
2022-08-07T10:35:27.189Z,2.15
2022-08-07T10:38:42.061Z,2.08
2022-08-07T10:41:51.350Z,1.90
2022-08-07T10:44:16.681Z,2.20
2022-08-07T10:47:00.538Z,1.67
2022-08-07T10:49:49.164Z,2.40
2022-08-07T10:52:31.807Z,1.92
2022-08-07T10:55:26.610Z,2.40
2022-08-07T10:58:11.674Z,2.13
2022-08-07T11:01:02.915Z,2.10
2022-08-07T11:03:51.318Z,2.10
2022-08-07T11:06:27.066Z,2.33
2022-08-07T11:10:09.504Z,2.13
2022-08-07T11:12:14.593Z,1.73
2022-08-07T11:15:09.590Z,1.67
2022-08-07T11:18:03.561Z,2.10
2022-08-07T11:20:42.804Z,2.10
2022-08-07T11:23:13.428Z,1.77
2022-08-07T11:26:09.110Z,1.80
2022-08-07T11:28:43.627Z,1.90
2022-08-07T11:31:24.289Z,2.40
2022-08-07T11:34:01.558Z,1.90
2022-08-07T11:36:44.454Z,1.80
2022-08-07T11:39:59.535Z,2.13
2022-08-07T11:42:19.185Z,2.30
2022-08-07T11:44:57.832Z,1.83
2022-08-07T11:47:55.999Z,2.05
2022-08-07T11:50:57.821Z,1.85
2022-08-07T11:53:37.701Z,2.63
2022-08-07T11:56:36.997Z,1.80
2022-08-07T12:00:12.602Z,1.90
2022-08-07T12:02:20.977Z,1.80
2022-08-07T12:05:02.795Z,2.00
2022-08-07T12:07:39.288Z,1.90
2022-08-07T12:10:14.922Z,1.80
2022-08-07T12:12:44.658Z,2.20
2022-08-07T12:16:05.094Z,2.00
2022-08-07T12:18:34.880Z,1.73
2022-08-07T12:21:15.003Z,2.03
2022-08-07T12:24:07.086Z,1.85
2022-08-07T12:26:47.396Z,2.17
2022-08-07T12:29:16.578Z,2.30
2022-08-07T12:32:12.470Z,1.90
2022-08-07T12:34:42.148Z,1.70
2022-08-07T12:37:23.785Z,1.67
2022-08-07T12:39:57.506Z,1.67
2022-08-07T12:42:32.131Z,1.90
2022-08-07T12:47:41.232Z,1.98
2022-08-07T12:50:39.104Z,1.88
2022-08-07T12:53:05.271Z,1.70
2022-08-07T12:56:09.350Z,1.70
2022-08-07T12:58:43.886Z,2.00
2022-08-07T13:01:32.198Z,1.85
2022-08-07T13:04:34.558Z,1.85
2022-08-07T13:08:12.946Z,1.73
2022-08-07T13:10:37.813Z,1.95
2022-08-07T13:13:09.762Z,2.00
2022-08-07T13:15:59.049Z,1.80
2022-08-07T13:18:44.458Z,1.65
2022-08-07T13:21:37.404Z,1.70
2022-08-07T13:24:15.181Z,1.70
2022-08-07T13:26:46.378Z,2.20
2022-08-07T13:29:17.455Z,1.60
2022-08-07T13:32:15.267Z,1.80
2022-08-07T13:34:54.910Z,1.93
2022-08-07T13:37:43.335Z,2.08
2022-08-07T13:40:36.217Z,1.70
2022-08-07T13:43:12.329Z,2.00
2022-08-07T13:46:11.255Z,1.80
2022-08-07T13:48:34.588Z,1.63
2022-08-07T13:51:28.358Z,1.83
2022-08-07T13:53:59.258Z,1.63
2022-08-07T13:56:35.582Z,1.88
2022-08-07T13:59:13.530Z,1.92
2022-08-07T14:02:04.088Z,1.88
2022-08-07T14:04:36.134Z,1.80
2022-08-07T14:07:09.579Z,1.75
2022-08-07T14:10:00.581Z,1.83
2022-08-07T14:12:31.566Z,2.00
2022-08-07T14:15:07.259Z,2.20
2022-08-07T14:18:27.316Z,2.00
2022-08-07T14:20:40.753Z,2.03
2022-08-07T14:23:59.512Z,1.80
2022-08-07T14:26:28.647Z,1.70
2022-08-07T14:29:10.640Z,2.10
2022-08-07T14:31:53.460Z,2.17
2022-08-07T14:34:29.646Z,2.15
2022-08-07T14:36:57.788Z,1.83
2022-08-07T14:40:14.537Z,2.28
2022-08-07T14:42:20.207Z,1.70
2022-08-07T14:44:53.558Z,1.95
2022-08-07T14:47:23.195Z,1.98
2022-08-07T14:49:57.450Z,2.45
2022-08-07T14:58:03.888Z,2.53
2022-08-07T15:00:32.093Z,2.50
2022-08-07T15:03:18.903Z,2.28
2022-08-07T15:05:54.849Z,2.45
2022-08-07T15:08:50.379Z,2.30
2022-08-07T15:14:12.552Z,2.50
2022-08-07T15:16:40.316Z,2.20
2022-08-07T15:20:31.468Z,2.17
2022-08-07T15:22:23.275Z,2.38
2022-08-07T15:25:14.123Z,2.50
2022-08-07T15:28:31.011Z,2.10
2022-08-07T15:30:34.918Z,2.13
2022-08-07T15:33:05.425Z,2.30
2022-08-07T15:36:00.323Z,2.55
2022-08-07T15:38:31.220Z,3.13
2022-08-07T15:41:23.424Z,3.13
2022-08-07T15:44:04.227Z,2.60
2022-08-07T15:46:45.903Z,2.53
2022-08-07T15:54:34.517Z,2.88
2022-08-07T15:57:02.958Z,3.10
2022-08-07T15:59:39.919Z,2.70
2022-08-07T16:02:15.256Z,2.83
2022-08-07T16:04:44.054Z,2.80
2022-08-07T16:08:32.055Z,3.17
2022-08-07T16:10:14.242Z,3.28
2022-08-07T16:12:42.040Z,3.30
2022-08-07T16:15:54.899Z,3.08
2022-08-07T16:18:50.243Z,2.70
2022-08-07T16:22:01.544Z,3.20
2022-08-07T16:24:34.464Z,3.33
2022-08-07T16:27:22.183Z,3.22
2022-08-07T16:30:10.146Z,3.13
2022-08-07T16:32:54.482Z,2.60
2022-08-07T16:35:58.642Z,3.05
2022-08-07T16:38:29.576Z,2.78
2022-08-07T16:41:16.314Z,3.20
2022-08-07T16:44:06.666Z,3.13
2022-08-07T16:47:05.797Z,2.70
2022-08-07T16:50:26.872Z,3.00
2022-08-07T16:52:51.220Z,3.47
2022-08-07T16:55:22.161Z,3.20
2022-08-07T16:58:01.843Z,3.00
2022-08-07T17:00:41.312Z,2.90
2022-08-07T17:03:17.081Z,3.40
2022-08-07T17:06:19.931Z,3.03
2022-08-07T17:09:10.851Z,2.80
2022-08-07T17:12:35.944Z,2.83
2022-08-07T17:15:08.046Z,2.85
2022-08-07T17:17:47.909Z,2.85
2022-08-07T17:20:21.479Z,2.88
2022-08-07T17:23:03.291Z,2.80
2022-08-07T17:25:51.509Z,2.78
2022-08-07T17:28:24.221Z,2.90
2022-08-07T17:31:16.149Z,2.58
2022-08-07T17:34:18.227Z,2.88
2022-08-07T17:36:59.936Z,2.53
2022-08-07T17:39:58.167Z,2.92
2022-08-07T17:42:59.729Z,2.38
2022-08-07T17:45:28.560Z,2.60
2022-08-07T17:48:14.602Z,2.45
2022-08-07T17:50:42.571Z,2.55
2022-08-07T17:54:00.132Z,2.80
2022-08-07T17:56:28.711Z,3.05
2022-08-07T17:58:56.929Z,3.03
2022-08-07T18:01:36.734Z,2.53
2022-08-07T18:04:31.250Z,2.65
2022-08-07T18:07:20.044Z,2.97
2022-08-07T18:10:06.907Z,2.92
2022-08-07T18:12:39.988Z,3.10
2022-08-07T18:15:20.088Z,2.80
2022-08-07T18:18:47.071Z,3.47
2022-08-07T18:21:07.006Z,3.10
2022-08-07T18:23:57.102Z,2.92
2022-08-07T18:26:45.866Z,3.10
2022-08-07T18:30:05.378Z,2.80
2022-08-07T18:32:20.878Z,2.70
2022-08-07T18:35:01.793Z,2.97
2022-08-07T18:38:59.711Z,3.05
2022-08-07T18:40:42.381Z,2.33
2022-08-07T18:43:12.099Z,2.75
2022-08-07T18:46:24.903Z,2.65
2022-08-07T18:50:30.075Z,2.80
2022-08-07T18:52:34.996Z,2.50
2022-08-07T18:54:27.677Z,3.03
2022-08-07T18:57:29.370Z,2.70
2022-08-07T18:59:59.364Z,2.80
2022-08-07T19:02:42.758Z,2.50
2022-08-07T19:06:02.618Z,2.72
2022-08-07T19:08:26.621Z,2.85
2022-08-07T19:10:59.504Z,3.42
2022-08-07T19:13:30.867Z,2.70
2022-08-07T19:16:04.497Z,2.70
2022-08-07T19:18:58.207Z,2.80
2022-08-07T19:21:47.466Z,2.80
2022-08-07T19:24:30.770Z,2.90
2022-08-07T19:28:30.134Z,2.80
2022-08-07T19:31:04.083Z,3.28
2022-08-07T19:32:44.767Z,2.90
2022-08-07T19:35:17.103Z,2.80
2022-08-07T19:37:56.623Z,2.67
2022-08-07T19:40:30.865Z,2.58
2022-08-07T19:42:59.270Z,2.72
2022-08-07T19:46:06.079Z,2.95
2022-08-07T19:48:18.622Z,2.90
2022-08-07T19:50:53.549Z,3.22
2022-08-07T19:54:30.831Z,3.50
2022-08-07T19:56:58.654Z,3.22
2022-08-07T19:58:58.283Z,3.30
2022-08-07T20:01:55.866Z,3.20
2022-08-07T20:04:31.065Z,2.90
2022-08-07T20:06:59.962Z,3.13
2022-08-07T20:10:36.758Z,3.25
2022-08-07T20:12:31.451Z,3.40
2022-08-07T20:14:59.956Z,3.07
2022-08-07T20:17:27.906Z,3.17
2022-08-07T20:19:58.517Z,3.40
2022-08-07T20:22:34.233Z,3.22
2022-08-07T20:25:12.576Z,3.38
2022-08-07T20:27:48.012Z,3.80
2022-08-07T20:30:22.024Z,3.10
2022-08-07T20:32:51.384Z,3.47
2022-08-07T20:35:27.028Z,3.70
2022-08-07T20:37:58.339Z,3.38
2022-08-07T20:40:32.120Z,3.10
2022-08-07T20:43:01.195Z,3.83
2022-08-07T20:45:33.640Z,3.20
2022-08-07T20:48:29.570Z,3.17
2022-08-07T20:51:02.027Z,3.33
2022-08-07T20:54:04.850Z,3.33
2022-08-07T20:56:26.007Z,3.33
2022-08-07T20:58:54.511Z,3.53
2022-08-07T21:01:23.152Z,3.47
2022-08-07T21:04:18.622Z,3.25
2022-08-07T21:06:46.050Z,3.50
2022-08-07T21:09:24.282Z,3.38
2022-08-07T21:11:57.088Z,3.53
2022-08-07T21:14:34.022Z,3.35
2022-08-07T21:18:06.624Z,3.70
2022-08-07T21:20:00.779Z,3.80
2022-08-07T21:22:33.922Z,3.80
2022-08-07T21:25:19.854Z,3.67
2022-08-07T21:28:06.259Z,4.25
2022-08-07T21:30:50.222Z,3.35
2022-08-07T21:33:21.762Z,3.95
2022-08-07T21:36:05.087Z,3.70
2022-08-07T21:39:02.277Z,3.75
2022-08-07T21:42:01.363Z,3.65
2022-08-07T21:44:52.643Z,3.78
2022-08-07T21:47:34.698Z,3.67
2022-08-07T21:50:14.757Z,3.60
2022-08-07T21:52:55.992Z,3.67
2022-08-07T21:55:28.009Z,3.83
2022-08-07T21:58:18.397Z,3.63
2022-08-07T22:01:00.643Z,4.00
2022-08-07T22:03:34.018Z,3.78
2022-08-07T22:08:59.236Z,3.75
2022-08-07T22:11:30.715Z,3.33
2022-08-07T22:14:15.292Z,3.85
2022-08-07T22:16:57.028Z,3.63
2022-08-07T22:19:29.669Z,3.70
2022-08-07T22:22:20.697Z,4.00
2022-08-07T22:25:10.780Z,3.70
2022-08-07T22:28:08.370Z,3.83
2022-08-07T22:30:54.839Z,4.25
2022-08-07T22:33:37.094Z,3.97
2022-08-07T22:36:18.247Z,3.67
2022-08-07T22:38:52.379Z,3.78
2022-08-07T22:41:29.244Z,3.75
2022-08-07T22:44:18.541Z,3.85
2022-08-07T22:47:08.950Z,3.75
2022-08-07T22:50:08.987Z,3.60
2022-08-07T22:52:52.179Z,3.60
2022-08-07T22:55:37.972Z,3.75
2022-08-07T22:58:28.456Z,3.83
2022-08-07T23:01:09.390Z,3.78
2022-08-07T23:03:57.345Z,3.72
2022-08-07T23:06:51.395Z,3.75
2022-08-07T23:10:00.718Z,3.65
2022-08-07T23:12:34.427Z,3.90
2022-08-07T23:15:11.570Z,4.95
2022-08-07T23:18:09.199Z,3.67
2022-08-07T23:20:52.740Z,3.70
2022-08-07T23:24:04.435Z,4.20
2022-08-07T23:26:10.791Z,3.88
2022-08-07T23:28:54.566Z,4.13
2022-08-07T23:32:50.103Z,3.55
2022-08-07T23:34:39.673Z,3.60
2022-08-07T23:37:25.463Z,4.13
2022-08-07T23:40:15.247Z,3.38
2022-08-07T23:43:17.033Z,3.33
2022-08-07T23:46:10.426Z,3.67
2022-08-07T23:48:58.570Z,3.17
2022-08-07T23:52:59.570Z,3.42
2022-08-07T23:54:46.612Z,3.65
2022-08-07T23:57:34.897Z,3.30
